Time;durP1;ratioP1;P1;durP2;ratioP2;P2;SDS_P1;SDS_P2;PMS_P1;PMS_P2;Temp;Humidity;BMP_temperature;BMP_pressure;BME280_temperature;BME280_humidity;BME280_pressure;Samples;Min_cycle;Max_cycle;Signal;HPM_P1;HPM_P2
2023/01/09 00:02:05;;;;;;;11.20;6.60;;;;;;;-4.86;100.00;100548.16;104150;1261;72833;-61
2023/01/09 00:04:32;;;;;;;15.30;7.60;;;;;;;-4.89;100.00;100545.19;104186;1255;63473;-61
2023/01/09 00:06:59;;;;;;;11.20;6.10;;;;;;;-4.88;100.00;100541.45;104259;1254;60585;-61
2023/01/09 00:09:26;;;;;;;8.30;4.80;;;;;;;-4.86;100.00;100543.38;104277;1277;73395;-63
2023/01/09 00:11:56;;;;;;;14.60;6.80;;;;;;;-4.82;100.00;100546.09;104317;1255;69299;-62
2023/01/09 00:14:23;;;;;;;9.80;7.20;;;;;;;-4.78;100.00;100551.19;104305;1255;71908;-62
2023/01/09 00:16:50;;;;;;;9.60;6.20;;;;;;;-4.77;100.00;100549.17;104209;1266;61845;-61
2023/01/09 00:19:17;;;;;;;8.40;5.80;;;;;;;-4.75;100.00;100549.23;104023;1260;61262;-63
2023/01/09 00:21:44;;;;;;;10.40;5.90;;;;;;;-4.75;100.00;100545.14;104287;1258;74356;-61
2023/01/09 00:24:12;;;;;;;7.90;5.20;;;;;;;-4.75;100.00;100547.52;104107;1256;70698;-61
2023/01/09 00:26:39;;;;;;;10.20;5.70;;;;;;;-4.75;100.00;100547.69;104182;1261;73690;-61
2023/01/09 00:29:06;;;;;;;11.50;6.10;;;;;;;-4.74;100.00;100550.62;104211;1260;61742;-61
2023/01/09 00:31:33;;;;;;;10.00;6.80;;;;;;;-4.73;100.00;100546.73;104037;1257;60880;-61
2023/01/09 00:34:05;;;;;;;10.60;6.00;;;;;;;-4.72;100.00;100545.22;104245;1261;74817;-62
2023/01/09 00:36:32;;;;;;;8.90;6.00;;;;;;;-4.71;100.00;100542.69;104072;1260;69291;-61
2023/01/09 00:38:59;;;;;;;9.50;6.40;;;;;;;-4.68;100.00;100542.29;104241;1259;75114;-62
2023/01/09 00:41:41;;;;;;;8.80;6.10;;;;;;;-4.62;100.00;100535.27;104193;1270;61354;-62
2023/01/09 00:44:13;;;;;;;9.90;6.00;;;;;;;-4.61;100.00;100533.41;104281;1272;60565;-62
2023/01/09 00:46:44;;;;;;;11.20;5.70;;;;;;;-4.59;100.00;100530.95;104372;1255;74264;-62
2023/01/09 00:49:11;;;;;;;11.70;6.90;;;;;;;-4.61;100.00;100525.74;104325;1258;68882;-61
2023/01/09 00:51:38;;;;;;;9.40;6.10;;;;;;;-4.61;100.00;100527.61;104166;1256;73266;-61
2023/01/09 00:54:05;;;;;;;8.10;5.60;;;;;;;-4.62;100.00;100526.73;104016;1272;61636;-61
2023/01/09 00:56:33;;;;;;;10.40;6.20;;;;;;;-4.61;100.00;100524.55;104236;1270;60895;-62
2023/01/09 00:59:01;;;;;;;9.70;6.00;;;;;;;-4.58;100.00;100512.82;104317;1258;72826;-61
2023/01/09 01:01:28;;;;;;;11.00;5.70;;;;;;;-4.59;100.00;100510.91;104379;1258;70040;-63
2023/01/09 01:03:55;;;;;;;7.80;5.40;;;;;;;-4.60;100.00;100503.88;104249;1254;73546;-61
2023/01/09 01:09:08;;;;;;;9.20;5.40;;;;;;;-4.53;100.00;100494.02;104321;1260;60537;-61
2023/01/09 01:11:35;;;;;;;9.20;5.50;;;;;;;-4.47;100.00;100490.40;104316;1276;76080;-61
2023/01/09 01:14:02;;;;;;;7.70;5.00;;;;;;;-4.45;100.00;100483.62;104205;1254;71066;-61
2023/01/09 01:16:29;;;;;;;9.80;5.80;;;;;;;-4.44;100.00;100481.29;104229;1268;72357;-62
2023/01/09 01:18:56;;;;;;;8.70;5.80;;;;;;;-4.43;100.00;100472.22;104348;1254;60572;-62
2023/01/09 01:21:23;;;;;;;9.30;5.00;;;;;;;-4.43;100.00;100468.27;104388;1258;60500;-61
2023/01/09 01:23:50;;;;;;;9.50;5.40;;;;;;;-4.45;100.00;100466.02;104319;1254;74151;-61
2023/01/09 01:26:18;;;;;;;7.80;5.40;;;;;;;-4.42;100.00;100459.27;104313;1254;69682;-61
2023/01/09 01:28:45;;;;;;;12.60;4.90;;;;;;;-4.40;100.00;100451.79;104248;1260;71811;-61
2023/01/09 01:31:17;;;;;;;7.80;4.60;;;;;;;-4.41;100.00;100445.24;104203;1254;60507;-61
2023/01/09 01:33:44;;;;;;;7.50;4.70;;;;;;;-4.41;100.00;100440.44;104109;1260;60612;-61
2023/01/09 01:36:11;;;;;;;8.70;4.50;;;;;;;-4.41;100.00;100436.33;104204;1262;73867;-62
2023/01/09 01:38:38;;;;;;;8.10;5.20;;;;;;;-4.44;100.00;100432.14;104242;1257;69163;-61
2023/01/09 01:41:06;;;;;;;8.70;4.50;;;;;;;-4.44;100.00;100432.14;104188;1257;73461;-62
2023/01/09 01:43:53;;;;;;;6.40;4.50;;;;;;;-4.44;100.00;100432.14;104257;1262;61666;-63
2023/01/09 01:46:20;;;;;;;7.50;4.90;;;;;;;-4.45;100.00;100434.00;104215;1271;60517;-61
2023/01/09 01:48:48;;;;;;;7.30;4.60;;;;;;;-4.47;100.00;100436.33;104274;1260;74388;-61
2023/01/09 01:51:15;;;;;;;6.50;4.10;;;;;;;-4.48;100.00;100436.80;104223;1255;70175;-61
2023/01/09 01:53:52;;;;;;;;;;;;;;;-4.49;100.00;100436.25;104233;1267;72211;-62
2023/01/09 01:56:27;;;;;;;6.60;4.30;;;;;;;-4.56;100.00;100431.10;104381;1262;61240;-61
2023/01/09 01:59:04;;;;;;;7.00;4.30;;;;;;;-4.56;100.00;100425.45;104261;1254;60707;-62
2023/01/09 02:01:32;;;;;;;6.10;4.00;;;;;;;-4.51;100.00;100420.12;104250;1260;74127;-61
2023/01/09 02:04:00;;;;;;;5.70;4.40;;;;;;;-4.49;100.00;100416.09;104324;1260;69878;-63
2023/01/09 02:06:28;;;;;;;;;;;;;;;-4.51;100.00;100420.83;104177;1262;73098;-61
2023/01/09 02:08:55;;;;;;;6.10;4.10;;;;;;;-4.53;100.00;100420.41;104409;1257;61272;-62
2023/01/09 02:11:22;;;;;;;7.50;4.20;;;;;;;-4.48;100.00;100411.14;104186;1258;60943;-61
2023/01/09 02:13:49;;;;;;;6.50;4.20;;;;;;;-4.46;100.00;100408.80;104224;1261;73622;-62
2023/01/09 02:16:38;;;;;;;7.00;4.40;;;;;;;-4.47;100.00;100408.44;104225;1260;70481;-61
2023/01/09 02:19:28;;;;;;;8.30;4.10;;;;;;;-4.48;100.00;100404.63;104338;1258;72896;-61
2023/01/09 02:22:06;;;;;;;7.20;4.30;;;;;;;-4.50;100.00;100408.17;104156;1272;60740;-61
2023/01/09 02:24:53;;;;;;;7.70;4.80;;;;;;;-4.48;100.00;100403.60;104199;1256;60541;-62
2023/01/09 02:28:25;;;;;;;5.80;3.90;;;;;;;-4.56;100.00;100399.11;104256;1277;74236;-61
2023/01/09 02:31:12;;;;;;;6.60;3.70;;;;;;;-4.62;100.00;100401.16;103376;1272;71971;-62
2023/01/09 02:34:01;;;;;;;10.00;4.20;;;;;;;-4.61;100.00;100399.45;104205;1261;72953;-61
2023/01/09 02:36:44;;;;;;;8.90;4.20;;;;;;;-4.62;100.00;100400.59;103947;1264;60851;-61
2023/01/09 02:39:36;;;;;;;6.50;3.80;;;;;;;-4.61;100.00;100406.13;104307;1265;61899;-62
2023/01/09 02:42:24;;;;;;;7.30;4.20;;;;;;;-4.60;100.00;100403.95;104258;1276;74362;-62
2023/01/09 02:44:50;;;;;;;5.90;4.20;;;;;;;-4.60;100.00;100399.16;104251;1261;69227;-61
2023/01/09 02:47:19;;;;;;;10.00;4.30;;;;;;;-4.62;100.00;100401.16;104215;1277;73854;-61
2023/01/09 02:49:50;;;;;;;6.80;4.20;;;;;;;-4.67;100.00;100398.23;104178;1256;61612;-62
2023/01/09 02:52:18;;;;;;;7.20;4.50;;;;;;;-4.70;100.00;100397.82;104298;1262;60629;-61
2023/01/09 02:55:09;;;;;;;6.50;4.20;;;;;;;-4.72;100.00;100396.90;104317;1271;74916;-61
2023/01/09 02:58:10;;;;;;;5.90;3.70;;;;;;;-4.72;100.00;100403.73;104317;1268;70241;-63
2023/01/09 03:00:56;;;;;;;8.90;4.50;;;;;;;-4.77;100.00;100402.39;104341;1258;73044;-61
2023/01/09 03:03:39;;;;;;;5.60;4.00;;;;;;;-4.79;100.00;100401.66;104208;1260;61871;-62
2023/01/09 03:06:23;;;;;;;4.70;3.60;;;;;;;-4.83;100.00;100401.36;104250;1254;61049;-61
2023/01/09 03:08:53;;;;;;;6.10;3.80;;;;;;;-4.84;100.00;100404.38;104240;1260;73523;-61
2023/01/09 03:11:20;;;;;;;6.30;4.00;;;;;;;-4.84;100.00;100402.34;104248;1261;70003;-60
2023/01/09 03:13:56;;;;;;;5.60;4.00;;;;;;;-4.85;100.00;100401.14;104218;1259;73524;-60
2023/01/09 03:16:26;;;;;;;6.90;4.30;;;;;;;-4.86;100.00;100402.10;104291;1265;61227;-61
2023/01/09 03:18:53;;;;;;;6.80;4.10;;;;;;;-4.84;100.00;100401.67;104272;1261;60488;-62
2023/01/09 03:21:20;;;;;;;5.00;3.80;;;;;;;-4.84;100.00;100399.28;104269;1261;74230;-61
2023/01/09 03:23:48;;;;;;;6.60;4.20;;;;;;;-4.84;100.00;100393.61;104232;1276;70679;-61
2023/01/09 03:26:16;;;;;;;6.30;4.00;;;;;;;-4.82;100.00;100395.55;104191;1258;72389;-61
2023/01/09 03:28:43;;;;;;;;;;;;;;;-4.83;100.00;100392.98;104107;1268;61256;-61
2023/01/09 03:31:11;;;;;;;5.70;3.70;;;;;;;-4.87;100.00;100381.91;104288;1256;60539;-61
2023/01/09 03:33:38;;;;;;;7.20;3.60;;;;;;;-4.83;100.00;100386.15;104359;1260;74744;-61
2023/01/09 03:36:05;;;;;;;5.00;3.50;;;;;;;-4.78;100.00;100381.48;104219;1268;70975;-61
2023/01/09 03:38:32;;;;;;;7.30;4.20;;;;;;;-4.76;100.00;100373.85;104309;1260;72591;-62
2023/01/09 03:41:00;;;;;;;5.50;4.00;;;;;;;-4.75;100.00;100370.80;104217;1260;60789;-61
2023/01/09 03:43:27;;;;;;;5.70;3.50;;;;;;;-4.75;100.00;100371.84;104219;1261;62621;-60
2023/01/09 03:45:54;;;;;;;5.70;4.10;;;;;;;-4.75;100.00;100369.45;104324;1256;73657;-61
2023/01/09 03:48:21;;;;;;;5.50;3.60;;;;;;;-4.75;100.00;100370.13;104179;1256;70464;-62
2023/01/09 03:50:52;;;;;;;7.10;3.90;;;;;;;-4.76;100.00;100365.15;104358;1268;72483;-61
2023/01/09 03:53:19;;;;;;;5.90;4.20;;;;;;;-4.78;100.00;100365.77;104218;1259;60753;-61
2023/01/09 03:55:48;;;;;;;5.10;3.70;;;;;;;-4.78;100.00;100364.03;104247;1258;60521;-62
2023/01/09 03:58:15;;;;;;;7.00;4.20;;;;;;;-4.80;100.00;100364.67;104232;1261;73855;-61
2023/01/09 04:00:44;;;;;;;4.60;3.80;;;;;;;-4.79;100.00;100364.19;104330;1256;68896;-61
2023/01/09 04:03:11;;;;;;;6.30;4.00;;;;;;;-4.78;100.00;100365.58;104147;1277;72469;-61
2023/01/09 04:05:39;;;;;;;6.80;4.80;;;;;;;-4.80;100.00;100368.44;104261;1260;60500;-61
2023/01/09 04:08:06;;;;;;;6.80;4.20;;;;;;;-4.82;100.00;100365.98;104165;1263;60537;-60
2023/01/09 04:10:33;;;;;;;8.50;3.80;;;;;;;-4.81;100.00;100363.11;104412;1256;75140;-62
2023/01/09 04:13:00;;;;;;;6.90;4.40;;;;;;;-4.81;100.00;100356.77;104173;1266;70646;-62
2023/01/09 04:15:27;;;;;;;6.60;4.50;;;;;;;-4.83;100.00;100352.10;104379;1257;72879;-61
2023/01/09 04:17:54;;;;;;;6.80;4.00;;;;;;;-4.84;100.00;100347.77;104432;1261;60761;-61
2023/01/09 04:20:22;;;;;;;6.30;4.30;;;;;;;-4.86;100.00;100349.42;104369;1258;60513;-61
2023/01/09 04:22:49;;;;;;;5.70;4.20;;;;;;;-4.88;100.00;100349.54;104335;1256;74646;-62
2023/01/09 04:25:16;;;;;;;5.70;4.00;;;;;;;-4.88;100.00;100346.46;104516;1261;69362;-60
2023/01/09 04:27:44;;;;;;;6.60;3.90;;;;;;;-4.86;100.00;100346.68;104360;1260;72910;-61
2023/01/09 04:30:13;;;;;;;9.10;5.00;;;;;;;-4.87;100.00;100342.40;104304;1260;63009;-61
2023/01/09 04:32:40;;;;;;;;;;;;;;;-4.85;100.00;100335.08;104186;1275;60576;-61
2023/01/09 04:35:09;;;;;;;7.00;4.20;;;;;;;-4.88;100.00;100333.82;104222;1259;74372;-60
2023/01/09 04:37:36;;;;;;;5.30;3.80;;;;;;;-4.81;100.00;100335.55;104428;1272;70158;-63
2023/01/09 04:40:10;;;;;;;7.40;4.30;;;;;;;-4.77;100.00;100331.05;104349;1258;75350;-62
2023/01/09 04:42:39;;;;;;;4.90;3.90;;;;;;;-4.77;100.00;100323.20;104170;1262;60860;-60
2023/01/09 04:45:07;;;;;;;6.20;4.20;;;;;;;-4.74;100.00;100326.70;104309;1254;60545;-60
2023/01/09 04:47:34;;;;;;;7.90;4.10;;;;;;;-4.77;100.00;100324.73;104346;1266;73975;-60
2023/01/09 04:50:02;;;;;;;6.50;3.90;;;;;;;-4.78;100.00;100328.97;104218;1259;70559;-60
2023/01/09 04:52:29;;;;;;;5.80;4.10;;;;;;;-4.77;100.00;100334.84;104235;1268;72593;-62
2023/01/09 04:54:59;;;;;;;5.40;4.40;;;;;;;-4.76;100.00;100335.87;104316;1256;61910;-61
2023/01/09 04:57:26;;;;;;;5.60;4.00;;;;;;;-4.75;100.00;100336.25;104284;1257;60561;-60
2023/01/09 04:59:54;;;;;;;6.20;4.10;;;;;;;-4.74;100.00;100330.15;104202;1276;76365;-61
2023/01/09 05:02:21;;;;;;;5.70;3.70;;;;;;;-4.76;100.00;100328.52;104266;1262;69443;-61
2023/01/09 05:04:48;;;;;;;;;;;;;;;-4.73;100.00;100325.17;104110;1272;72879;-61
2023/01/09 05:07:16;;;;;;;4.70;3.70;;;;;;;-4.77;100.00;100330.02;104216;1268;61439;-61
2023/01/09 05:09:45;;;;;;;6.00;3.70;;;;;;;-4.74;100.00;100324.66;104155;1261;60529;-60
2023/01/09 05:12:12;;;;;;;5.20;4.20;;;;;;;-4.76;100.00;100323.92;104321;1256;74189;-61
2023/01/09 05:14:39;;;;;;;6.40;4.20;;;;;;;-4.75;100.00;100320.53;104174;1260;70593;-61
2023/01/09 05:17:06;;;;;;;7.40;5.00;;;;;;;-4.71;100.00;100315.00;104275;1257;74125;-61
2023/01/09 05:19:35;;;;;;;5.70;3.80;;;;;;;-4.68;100.00;100309.77;104344;1258;60953;-61
2023/01/09 05:22:02;;;;;;;5.60;4.10;;;;;;;-4.65;100.00;100306.95;104169;1261;60559;-60
2023/01/09 05:24:30;;;;;;;7.40;4.60;;;;;;;-4.64;100.00;100305.62;104235;1274;73324;-61
2023/01/09 05:26:57;;;;;;;7.40;4.50;;;;;;;-4.61;100.00;100302.27;104175;1278;69095;-60
2023/01/09 05:29:24;;;;;;;8.90;4.40;;;;;;;-4.58;100.00;100305.80;104230;1260;72664;-61
2023/01/09 05:31:51;;;;;;;11.60;4.70;;;;;;;-4.55;100.00;100306.21;104385;1259;61230;-61
2023/01/09 05:34:19;;;;;;;6.30;4.30;;;;;;;-4.54;100.00;100301.98;104138;1264;60866;-61
2023/01/09 05:36:47;;;;;;;6.30;4.10;;;;;;;-4.52;100.00;100298.09;104237;1254;74901;-62
2023/01/09 05:39:14;;;;;;;5.80;4.10;;;;;;;-4.48;100.00;100293.56;104167;1268;72050;-61
2023/01/09 05:41:41;;;;;;;;;;;;;;;-4.47;100.00;100289.15;104113;1260;73054;-61
2023/01/09 05:44:08;;;;;;;6.20;4.00;;;;;;;-4.52;100.00;100286.80;104139;1271;61646;-62
2023/01/09 05:46:36;;;;;;;7.40;4.20;;;;;;;-4.49;100.00;100288.93;104278;1256;60515;-62
2023/01/09 05:49:03;;;;;;;6.30;4.00;;;;;;;-4.47;100.00;100293.26;104206;1260;73951;-62
2023/01/09 05:51:30;;;;;;;6.30;4.20;;;;;;;-4.47;100.00;100294.45;104256;1261;70212;-61
2023/01/09 05:53:58;;;;;;;;;;;;;;;-4.46;100.00;100295.18;104279;1258;72682;-61
2023/01/09 05:56:25;;;;;;;6.90;4.10;;;;;;;-4.48;100.00;100302.81;104265;1273;62171;-61
2023/01/09 05:58:52;;;;;;;5.70;3.70;;;;;;;-4.47;100.00;100298.07;104216;1261;60582;-62
2023/01/09 06:01:20;;;;;;;7.40;4.10;;;;;;;-4.44;100.00;100298.14;104127;1259;72855;-61
2023/01/09 06:03:49;;;;;;;4.50;3.90;;;;;;;-4.39;100.00;100298.80;104288;1274;69342;-60
2023/01/09 06:06:16;;;;;;;5.60;3.70;;;;;;;-4.34;100.00;100298.09;104391;1260;75356;-61
2023/01/09 06:08:43;;;;;;;5.20;3.90;;;;;;;-4.33;100.00;100295.19;104171;1257;60989;-60
2023/01/09 06:11:11;;;;;;;4.50;3.70;;;;;;;-4.33;100.00;100297.42;104355;1259;60501;-62
2023/01/09 06:13:38;;;;;;;5.50;4.50;;;;;;;-4.27;100.00;100294.66;104331;1259;73833;-59
2023/01/09 06:16:06;;;;;;;6.60;4.60;;;;;;;-4.23;100.00;100292.73;104346;1262;69408;-59
2023/01/09 06:18:33;;;;;;;5.60;4.10;;;;;;;-4.21;100.00;100288.67;103957;1262;433245;-59
2023/01/09 06:21:52;;;;;;;8.40;4.60;;;;;;;-4.34;100.00;100277.89;101689;1293;601515;-58
2023/01/09 07:54:09;;;;;;;5.10;3.20;;;;;;;-5.28;100.00;100268.12;103890;1285;601474;-56
2023/01/09 07:56:36;;;;;;;3.40;2.90;;;;;;;-4.86;100.00;100287.02;103374;1269;62692;-56
2023/01/09 07:59:03;;;;;;;4.30;3.90;;;;;;;-4.69;100.00;100285.10;103806;1269;61811;-58
2023/01/09 08:01:30;;;;;;;7.50;4.40;;;;;;;-4.58;100.00;100289.54;103642;1275;72535;-59
2023/01/09 08:03:58;;;;;;;7.70;4.60;;;;;;;-4.48;100.00;100292.40;103515;1285;68750;-61
2023/01/09 08:06:30;;;;;;;6.20;4.60;;;;;;;-4.40;100.00;100290.74;103901;1270;194111;-59
2023/01/09 08:08:58;;;;;;;5.10;4.50;;;;;;;-4.34;100.00;100291.42;104138;1263;61368;-59
2023/01/09 08:11:25;;;;;;;;;;;;;;;-4.27;100.00;100289.54;104081;1260;60650;-60
2023/01/09 08:13:58;;;;;;;4.70;3.70;;;;;;;-4.20;100.00;100283.07;104071;1265;74089;-59
2023/01/09 08:16:29;;;;;;;;;;;;;;;-4.05;100.00;100283.79;104123;1268;71515;-61
2023/01/09 08:18:57;;;;;;;6.20;4.40;;;;;;;-4.05;100.00;100276.42;104082;1266;74270;-61
2023/01/09 08:21:24;;;;;;;;;;;;;;;-4.03;100.00;100276.48;104022;1267;59868;-61
2023/01/09 08:23:52;;;;;;;7.30;4.30;;;;;;;-4.03;100.00;100270.33;103851;1272;60527;-61
2023/01/09 08:26:20;;;;;;;4.90;3.70;;;;;;;-3.97;100.00;100274.42;104063;1263;73155;-60
2023/01/09 08:28:48;;;;;;;5.50;4.30;;;;;;;-3.89;100.00;100274.09;103875;1266;70190;-61
2023/01/09 08:31:15;;;;;;;5.30;3.70;;;;;;;-3.77;100.00;100270.98;103882;1278;74531;-60
2023/01/09 08:33:43;;;;;;;;;;;;;;;-3.71;100.00;100265.31;103958;1265;59772;-60
2023/01/09 08:36:13;;;;;;;6.70;3.70;;;;;;;-3.69;100.00;100260.73;103855;1276;62296;-59
2023/01/09 08:38:40;;;;;;;8.50;4.20;;;;;;;-3.65;100.00;100254.33;103890;1266;74773;-59
2023/01/09 08:47:06;;;;;;;5.70;3.80;;;;;;;-3.49;100.00;100238.92;103906;1260;64518;-60
2023/01/09 08:49:35;;;;;;;6.40;4.10;;;;;;;-3.43;100.00;100233.24;104028;1261;61576;-60
2023/01/09 08:52:04;;;;;;;4.70;4.10;;;;;;;-3.43;100.00;100226.56;104134;1265;75199;-59
2023/01/09 08:54:32;;;;;;;5.90;4.60;;;;;;;-3.43;100.00;100220.70;103959;1268;71458;-58
2023/01/09 08:57:00;;;;;;;5.40;3.60;;;;;;;-3.43;100.00;100216.43;103885;1281;73287;-59
2023/01/09 08:59:27;;;;;;;4.20;3.50;;;;;;;-3.44;100.00;100214.52;103837;1280;63981;-59
2023/01/09 09:01:54;;;;;;;5.20;4.00;;;;;;;-3.37;100.00;100217.24;103935;1264;62391;-61
2023/01/09 09:04:22;;;;;;;;;;;;;;;-3.26;100.00;100224.19;104560;1260;75164;-60
2023/01/09 09:06:49;;;;;;;;;;;;;;;-3.28;100.00;100214.21;104520;1256;72146;-59
2023/01/09 09:09:18;;;;;;;;;;;;;;;-3.32;100.00;100208.48;104479;1256;75045;-62
2023/01/09 09:30:49;;;;;;;6.20;3.90;;;;;;;-3.11;100.00;100183.88;104375;1257;74352;-60
2023/01/09 09:33:17;;;;;;;5.00;3.90;;;;;;;-3.05;100.00;100179.89;104141;1263;59782;-59
2023/01/09 09:35:44;;;;;;;4.80;3.60;;;;;;;-3.00;100.00;100182.73;104190;1256;60645;-59
2023/01/09 09:38:15;;;;;;;5.40;3.60;;;;;;;-2.98;100.00;100173.85;104128;1258;73563;-60
2023/01/09 09:40:54;;;;;;;4.40;3.60;;;;;;;-2.97;100.00;100185.55;103975;1278;70620;-63
2023/01/09 09:46:44;;;;;;;3.50;3.10;;;;;;;-2.86;100.00;100184.56;104231;1263;60974;-60
2023/01/09 09:49:16;;;;;;;5.70;3.30;;;;;;;-2.80;100.00;100179.53;104327;1261;60760;-60
2023/01/09 11:59:28;;;;;;;3.80;2.40;;;;;;;-3.59;100.00;100104.86;102308;1291;601666;-61
2023/01/09 12:02:17;;;;;;;5.00;3.30;;;;;;;-3.10;100.00;100123.54;103554;1268;61525;-63
2023/01/09 12:05:00;;;;;;;6.40;3.50;;;;;;;-2.81;100.00;100124.42;103745;1282;60667;-63
2023/01/09 12:07:46;;;;;;;3.40;3.10;;;;;;;-2.65;100.00;100120.95;103535;1282;76450;-63
2023/01/09 12:10:29;;;;;;;6.60;3.30;;;;;;;-2.54;100.00;100113.45;103683;1272;69019;-63
2023/01/09 12:13:20;;;;;;;5.70;3.60;;;;;;;-2.42;100.00;100111.23;103602;1269;170308;-61
2023/01/09 12:16:06;;;;;;;4.80;3.30;;;;;;;-2.36;100.00;100103.27;104087;1264;59375;-66
2023/01/09 12:18:54;;;;;;;6.10;3.80;;;;;;;-2.32;100.00;100096.80;103957;1270;60408;-63
2023/01/09 12:21:37;;;;;;;4.70;3.20;;;;;;;-2.24;100.00;100090.75;103834;1266;73542;-62
2023/01/09 12:24:35;;;;;;;4.10;3.40;;;;;;;-2.17;100.00;100082.45;103956;1267;69900;-62
2023/01/09 12:27:15;;;;;;;4.70;3.30;;;;;;;-2.09;100.00;100078.11;103920;1263;73316;-62
2023/01/09 12:30:03;;;;;;;4.00;2.80;;;;;;;-2.03;100.00;100077.34;104098;1265;60917;-62
2023/01/09 12:33:02;;;;;;;3.70;3.20;;;;;;;-1.98;100.00;100068.84;104052;1266;60398;-61
2023/01/09 12:35:34;;;;;;;4.50;2.90;;;;;;;-1.96;100.00;100063.70;103910;1264;74549;-61
2023/01/09 12:38:02;;;;;;;4.40;3.30;;;;;;;-1.94;100.00;100061.33;103951;1264;69098;-61
2023/01/09 12:40:37;;;;;;;4.40;3.50;;;;;;;-1.93;100.00;100055.49;103909;1264;75211;-61
2023/01/09 12:43:19;;;;;;;3.80;3.00;;;;;;;-1.90;100.00;100060.52;104146;1263;59778;-61
2023/01/09 12:46:09;;;;;;;4.10;3.10;;;;;;;-1.89;100.00;100061.22;103860;1275;60104;-66
2023/01/09 12:48:50;;;;;;;4.90;2.80;;;;;;;-1.88;100.00;100059.35;103797;1285;74340;-62
2023/01/09 12:52:12;;;;;;;3.30;2.80;;;;;;;-1.82;100.00;100073.35;106013;1256;71917;-64
2023/01/09 12:54:44;;;;;;;3.80;2.80;;;;;;;-1.75;100.00;100078.10;104044;1278;72692;-62
2023/01/09 12:57:11;;;;;;;4.40;3.20;;;;;;;-1.71;100.00;100076.08;103738;1266;60574;-64
2023/01/09 12:59:44;;;;;;;;;;;;;;;-1.75;100.00;100061.42;103930;1263;61093;-63
2023/01/09 13:02:24;;;;;;;3.60;2.60;;;;;;;-1.73;100.00;100063.50;103839;1268;73929;-62
2023/01/09 13:04:55;;;;;;;3.80;3.10;;;;;;;-1.63;100.00;100063.99;103959;1268;69617;-63
2023/01/09 13:07:26;;;;;;;4.30;2.90;;;;;;;-1.60;100.00;100062.98;103982;1263;73572;-63
2023/01/09 13:10:25;;;;;;;3.60;2.80;;;;;;;-1.63;100.00;100056.27;104147;1262;60963;-71
2023/01/09 13:12:53;;;;;;;3.70;2.70;;;;;;;-1.62;100.00;100059.02;103903;1266;61102;-65
2023/01/09 13:15:29;;;;;;;3.90;2.90;;;;;;;-1.55;100.00;100061.52;103911;1263;75313;-65
2023/01/09 13:18:10;;;;;;;3.60;2.60;;;;;;;-1.46;100.00;100064.54;103544;1263;71452;-64
2023/01/09 13:20:43;;;;;;;3.80;2.90;;;;;;;-1.46;100.00;100069.35;103732;1271;73794;-64
2023/01/09 13:23:38;;;;;;;3.50;2.70;;;;;;;-1.47;100.00;100070.05;104067;1263;59771;-63
2023/01/09 13:26:08;;;;;;;3.30;2.50;;;;;;;-1.50;100.00;100064.67;103605;1268;61747;-64
2023/01/09 13:28:42;;;;;;;4.20;2.70;;;;;;;-1.42;100.00;100061.86;103970;1270;73246;-64
2023/01/09 13:31:36;;;;;;;4.80;2.70;;;;;;;-1.32;100.00;100059.39;103922;1263;71640;-64
2023/01/09 13:34:04;;;;;;;3.10;2.80;;;;;;;-1.30;100.00;100057.35;103955;1264;74530;-63
2023/01/09 13:36:38;;;;;;;2.90;2.50;;;;;;;-1.30;100.00;100064.23;104063;1256;60663;-66
2023/01/09 13:39:07;;;;;;;4.50;2.60;;;;;;;-1.33;100.00;100062.64;104275;1261;62513;-64
2023/01/09 13:44:24;;;;;;;3.80;2.60;;;;;;;-1.21;100.00;100066.73;103974;1264;70877;-67
2023/01/09 13:46:53;;;;;;;2.90;2.60;;;;;;;-1.19;100.00;100066.25;104172;1265;76314;-68
2023/01/09 13:49:39;;;;;;;3.40;2.80;;;;;;;-1.21;100.00;100067.60;104014;1263;59773;-67
2023/01/09 17:48:55;;;;;;;3.70;2.70;;;;;;;-1.86;100.00;100051.98;102305;1291;601638;-60
2023/01/09 17:51:23;;;;;;;3.90;2.90;;;;;;;-1.42;100.00;100055.48;104012;1266;64833;-59
2023/01/09 17:53:51;;;;;;;5.90;3.50;;;;;;;-1.17;100.00;100047.35;104541;1262;60951;-60
2023/01/09 17:56:21;;;;;;;4.00;3.00;;;;;;;-0.96;100.00;100040.88;104270;1259;72528;-59
2023/01/09 17:58:48;;;;;;;5.80;3.20;;;;;;;-0.81;100.00;100031.20;104327;1272;70316;-60
2023/01/09 18:05:36;;;;;;;4.50;2.60;;;;;;;-0.60;100.00;100017.45;103693;1268;59885;-61
2023/01/09 18:08:07;;;;;;;6.70;3.40;;;;;;;-0.57;100.00;100014.55;103804;1280;61595;-60
2023/01/09 18:10:36;;;;;;;7.20;3.40;;;;;;;-0.45;100.00;100019.80;103726;1279;73141;-63
2023/01/09 18:13:03;;;;;;;4.20;2.70;;;;;;;-0.35;100.00;100014.04;103862;1270;70925;-60
2023/01/09 18:15:30;;;;;;;4.50;2.90;;;;;;;-0.32;100.00;100011.29;103794;1284;73588;-62
2023/01/09 18:17:57;;;;;;;3.90;2.80;;;;;;;-0.32;100.00;100009.92;103839;1268;59787;-61
2023/01/09 18:20:25;;;;;;;5.20;3.00;;;;;;;-0.32;100.00;100006.12;103810;1279;60971;-60
2023/01/09 18:22:52;;;;;;;5.20;3.30;;;;;;;-0.24;100.00;100004.98;103870;1282;73762;-59
2023/01/09 18:25:19;;;;;;;4.00;2.70;;;;;;;-0.18;100.00;100008.45;103918;1265;71205;-60
2023/01/09 18:27:46;;;;;;;4.30;3.10;;;;;;;-0.16;100.00;100012.78;103662;1271;73362;-61
2023/01/09 18:30:14;;;;;;;5.50;3.10;;;;;;;-0.18;100.00;100010.36;103789;1283;61478;-62
2023/01/09 18:32:41;;;;;;;4.10;3.50;;;;;;;-0.20;100.00;100013.44;103798;1268;60610;-63
2023/01/09 18:35:09;;;;;;;6.00;3.30;;;;;;;-0.20;100.00;100016.55;103754;1268;73726;-63
2023/01/09 18:37:36;;;;;;;;;;;;;;;-0.14;100.00;100010.73;103802;1271;72178;-64
2023/01/09 18:40:04;;;;;;;5.70;3.30;;;;;;;-0.16;100.00;100009.50;103817;1265;73377;-62
2023/01/09 18:42:31;;;;;;;3.40;2.70;;;;;;;-0.17;100.00;100000.73;103765;1268;60455;-62
2023/01/09 18:44:58;;;;;;;4.50;2.90;;;;;;;-0.19;100.00;100000.52;103813;1269;60534;-62
2023/01/09 18:47:26;;;;;;;2.90;2.50;;;;;;;-0.19;100.00;99992.60;103851;1269;73285;-63
2023/01/09 18:49:53;;;;;;;4.60;2.90;;;;;;;-0.14;100.00;99990.23;103733;1271;70120;-60
2023/01/09 18:52:20;;;;;;;3.90;2.70;;;;;;;-0.12;100.00;99982.66;103781;1266;73631;-60
2023/01/09 18:54:47;;;;;;;4.30;2.80;;;;;;;-0.15;100.00;99980.06;103825;1268;59867;-60
2023/01/09 18:57:14;;;;;;;3.10;2.80;;;;;;;-0.18;100.00;99991.06;103750;1277;60463;-60
2023/01/09 18:59:41;;;;;;;4.40;2.50;;;;;;;-0.14;100.00;99995.23;103722;1268;75366;-60
2023/01/09 19:02:19;;;;;;;3.30;2.60;;;;;;;-0.12;100.00;99988.52;103632;1285;71202;-60
2023/01/09 19:04:47;;;;;;;3.60;2.30;;;;;;;-0.10;100.00;99992.48;103620;1267;72627;-59
2023/01/09 19:07:14;;;;;;;5.70;2.70;;;;;;;-0.15;100.00;99993.32;103830;1268;59774;-59
2023/01/09 19:09:42;;;;;;;6.20;2.70;;;;;;;-0.20;100.00;99997.25;103711;1279;60026;-60
2023/01/09 19:12:10;;;;;;;2.90;2.50;;;;;;;-0.16;100.00;99995.39;103754;1267;74874;-62
2023/01/09 19:14:37;;;;;;;3.50;2.50;;;;;;;-0.08;100.00;99997.14;103746;1268;70129;-62
2023/01/09 19:17:04;;;;;;;;;;;;;;;-0.08;100.00;99996.29;103729;1265;72035;-63
2023/01/09 19:19:32;;;;;;;3.30;2.30;;;;;;;-0.15;100.00;99989.34;103703;1281;59824;-59
2023/01/09 19:21:59;;;;;;;;;;;;;;;-0.18;100.00;99990.02;103813;1272;60719;-60
2023/01/09 19:24:27;;;;;;;;;;;;;;;-0.24;100.00;99990.86;103732;1265;72928;-61
2023/01/09 19:26:55;;;;;;;6.40;2.10;;;;;;;-0.24;100.00;99994.64;103726;1284;70642;-60
2023/01/09 19:29:22;;;;;;;4.00;2.70;;;;;;;-0.19;100.00;99993.12;103776;1269;73424;-60
2023/01/09 19:31:51;;;;;;;3.00;2.30;;;;;;;-0.17;100.00;100001.58;103769;1267;59953;-59
2023/01/09 19:34:19;;;;;;;3.30;2.10;;;;;;;-0.16;100.00;100009.70;103707;1268;62298;-59
2023/01/09 19:36:46;;;;;;;2.80;1.80;;;;;;;-0.16;100.00;100007.27;103796;1269;73666;-61
2023/01/09 19:39:14;;;;;;;2.70;2.00;;;;;;;-0.19;100.00;100011.39;103757;1279;70593;-59
2023/01/09 19:41:41;;;;;;;3.00;1.90;;;;;;;-0.18;100.00;100010.53;103705;1280;73555;-60
2023/01/09 19:44:09;;;;;;;2.80;1.90;;;;;;;-0.09;100.00;100006.62;103685;1269;62008;-58
2023/01/09 19:46:36;;;;;;;3.90;2.10;;;;;;;-0.07;100.00;100001.46;103765;1268;61638;-59